Terminal Aerodrome Forecast
Issued by NWS

Home | Current Version | Previous Version | Text Only | Print | Product List | Glossary Off
Versions: 1 2 3 4 5 6 7 8 9 10 11 12 13 14 15 16 17 18

000
FTUS41 KCLE 212300
TAFFDY
TAF
KFDY 212334Z 2200/2224 VRB03KT P6SM FEW050
     FM221000 00000KT 5SM BR SKC
     FM221300 21007KT P6SM SCT040=

USA.gov is the U.S. government's official web portal to all federal, state and local government web resources and services.